sensor_id;sensor_type;location;lat;lon;timestamp;P1;durP1;ratioP1;P2;durP2;ratioP2
73015;SDS011;61893;50.074;14.440;2022-08-25T00:02:00;25.60;;;14.80;;
73015;SDS011;61893;50.074;14.440;2022-08-25T00:04:33;24.83;;;15.50;;
73015;SDS011;61893;50.074;14.440;2022-08-25T00:07:20;20.13;;;14.07;;
73015;SDS011;61893;50.074;14.440;2022-08-25T00:10:12;27.55;;;15.18;;
73015;SDS011;61893;50.074;14.440;2022-08-25T00:13:00;25.70;;;14.25;;
73015;SDS011;61893;50.074;14.440;2022-08-25T00:16:07;21.77;;;14.55;;
73015;SDS011;61893;50.074;14.440;2022-08-25T00:18:37;30.05;;;14.95;;
73015;SDS011;61893;50.074;14.440;2022-08-25T00:21:04;26.33;;;15.50;;
73015;SDS011;61893;50.074;14.440;2022-08-25T00:23:41;22.20;;;14.25;;
73015;SDS011;61893;50.074;14.440;2022-08-25T00:26:08;22.00;;;15.25;;
73015;SDS011;61893;50.074;14.440;2022-08-25T00:28:53;26.33;;;14.98;;
73015;SDS011;61893;50.074;14.440;2022-08-25T00:31:33;18.95;;;14.43;;
73015;SDS011;61893;50.074;14.440;2022-08-25T00:34:04;21.88;;;15.35;;
73015;SDS011;61893;50.074;14.440;2022-08-25T00:36:54;23.38;;;14.93;;
73015;SDS011;61893;50.074;14.440;2022-08-25T00:39:20;27.25;;;15.68;;
73015;SDS011;61893;50.074;14.440;2022-08-25T00:42:08;20.95;;;15.18;;
73015;SDS011;61893;50.074;14.440;2022-08-25T00:44:40;20.05;;;15.07;;
73015;SDS011;61893;50.074;14.440;2022-08-25T00:47:16;20.40;;;14.90;;
73015;SDS011;61893;50.074;14.440;2022-08-25T00:49:43;28.23;;;15.75;;
73015;SDS011;61893;50.074;14.440;2022-08-25T00:52:24;23.92;;;15.25;;
73015;SDS011;61893;50.074;14.440;2022-08-25T00:54:55;23.95;;;14.93;;
73015;SDS011;61893;50.074;14.440;2022-08-25T00:57:26;23.05;;;14.98;;
73015;SDS011;61893;50.074;14.440;2022-08-25T00:59:59;21.88;;;15.45;;
73015;SDS011;61893;50.074;14.440;2022-08-25T01:02:26;24.02;;;15.48;;
73015;SDS011;61893;50.074;14.440;2022-08-25T01:05:12;23.48;;;15.65;;
73015;SDS011;61893;50.074;14.440;2022-08-25T01:07:38;19.92;;;14.95;;
73015;SDS011;61893;50.074;14.440;2022-08-25T01:10:35;22.17;;;15.07;;
73015;SDS011;61893;50.074;14.440;2022-08-25T01:13:11;19.85;;;15.25;;
73015;SDS011;61893;50.074;14.440;2022-08-25T01:15:45;24.40;;;15.13;;
73015;SDS011;61893;50.074;14.440;2022-08-25T01:18:11;22.58;;;15.27;;
73015;SDS011;61893;50.074;14.440;2022-08-25T01:26:12;20.92;;;14.70;;
73015;SDS011;61893;50.074;14.440;2022-08-25T01:29:15;23.02;;;14.80;;
73015;SDS011;61893;50.074;14.440;2022-08-25T01:34:36;24.13;;;15.45;;
73015;SDS011;61893;50.074;14.440;2022-08-25T01:37:05;20.15;;;14.15;;
73015;SDS011;61893;50.074;14.440;2022-08-25T01:39:34;21.25;;;14.50;;
73015;SDS011;61893;50.074;14.440;2022-08-25T01:44:49;20.52;;;15.30;;
73015;SDS011;61893;50.074;14.440;2022-08-25T01:47:15;19.02;;;14.73;;
73015;SDS011;61893;50.074;14.440;2022-08-25T01:50:04;18.98;;;14.57;;
73015;SDS011;61893;50.074;14.440;2022-08-25T01:53:31;23.73;;;15.10;;
73015;SDS011;61893;50.074;14.440;2022-08-25T01:55:41;22.20;;;15.18;;
73015;SDS011;61893;50.074;14.440;2022-08-25T01:59:02;22.73;;;14.93;;
73015;SDS011;61893;50.074;14.440;2022-08-25T02:01:52;24.77;;;15.57;;
73015;SDS011;61893;50.074;14.440;2022-08-25T02:04:19;22.75;;;15.95;;
73015;SDS011;61893;50.074;14.440;2022-08-25T02:06:47;20.63;;;14.65;;
73015;SDS011;61893;50.074;14.440;2022-08-25T02:09:16;20.67;;;15.52;;
73015;SDS011;61893;50.074;14.440;2022-08-25T02:11:52;22.55;;;15.98;;
73015;SDS011;61893;50.074;14.440;2022-08-25T02:14:18;24.60;;;15.80;;
73015;SDS011;61893;50.074;14.440;2022-08-25T02:16:45;26.25;;;16.42;;
73015;SDS011;61893;50.074;14.440;2022-08-25T02:19:14;29.67;;;16.30;;
73015;SDS011;61893;50.074;14.440;2022-08-25T02:21:42;24.60;;;15.98;;
73015;SDS011;61893;50.074;14.440;2022-08-25T02:24:12;25.73;;;16.90;;
73015;SDS011;61893;50.074;14.440;2022-08-25T02:26:40;27.10;;;16.77;;
73015;SDS011;61893;50.074;14.440;2022-08-25T02:29:09;25.77;;;15.95;;
73015;SDS011;61893;50.074;14.440;2022-08-25T02:31:41;22.65;;;16.27;;
73015;SDS011;61893;50.074;14.440;2022-08-25T02:34:09;23.50;;;16.52;;
73015;SDS011;61893;50.074;14.440;2022-08-25T02:36:35;24.88;;;16.60;;
73015;SDS011;61893;50.074;14.440;2022-08-25T02:39:02;30.58;;;17.75;;
73015;SDS011;61893;50.074;14.440;2022-08-25T02:41:32;25.10;;;18.10;;
73015;SDS011;61893;50.074;14.440;2022-08-25T02:44:20;25.65;;;17.45;;
73015;SDS011;61893;50.074;14.440;2022-08-25T02:47:03;24.33;;;18.37;;
73015;SDS011;61893;50.074;14.440;2022-08-25T02:49:35;26.10;;;17.83;;
73015;SDS011;61893;50.074;14.440;2022-08-25T02:52:00;26.08;;;18.27;;
73015;SDS011;61893;50.074;14.440;2022-08-25T02:54:39;32.25;;;18.70;;
73015;SDS011;61893;50.074;14.440;2022-08-25T02:57:05;30.08;;;18.88;;
73015;SDS011;61893;50.074;14.440;2022-08-25T02:59:31;34.20;;;19.63;;
73015;SDS011;61893;50.074;14.440;2022-08-25T03:01:56;29.75;;;18.95;;
73015;SDS011;61893;50.074;14.440;2022-08-25T03:04:48;23.60;;;17.35;;
73015;SDS011;61893;50.074;14.440;2022-08-25T03:07:29;27.05;;;18.55;;
73015;SDS011;61893;50.074;14.440;2022-08-25T03:10:14;27.73;;;18.52;;
73015;SDS011;61893;50.074;14.440;2022-08-25T03:12:53;27.23;;;18.40;;
73015;SDS011;61893;50.074;14.440;2022-08-25T03:15:19;27.83;;;19.38;;
73015;SDS011;61893;50.074;14.440;2022-08-25T03:20:22;35.35;;;19.38;;
73015;SDS011;61893;50.074;14.440;2022-08-25T03:23:12;31.48;;;20.02;;
73015;SDS011;61893;50.074;14.440;2022-08-25T03:25:39;27.88;;;18.60;;
73015;SDS011;61893;50.074;14.440;2022-08-25T03:32:03;31.85;;;19.60;;
73015;SDS011;61893;50.074;14.440;2022-08-25T03:34:32;27.73;;;19.27;;
73015;SDS011;61893;50.074;14.440;2022-08-25T03:37:33;28.00;;;19.70;;
73015;SDS011;61893;50.074;14.440;2022-08-25T03:40:07;29.75;;;19.65;;
73015;SDS011;61893;50.074;14.440;2022-08-25T03:45:41;24.38;;;17.95;;
73015;SDS011;61893;50.074;14.440;2022-08-25T03:48:18;28.67;;;18.77;;
73015;SDS011;61893;50.074;14.440;2022-08-25T03:50:51;28.55;;;19.08;;
73015;SDS011;61893;50.074;14.440;2022-08-25T03:54:08;31.15;;;17.95;;
73015;SDS011;61893;50.074;14.440;2022-08-25T03:57:23;25.20;;;16.67;;
73015;SDS011;61893;50.074;14.440;2022-08-25T04:00:26;26.08;;;17.02;;
73015;SDS011;61893;50.074;14.440;2022-08-25T04:06:29;21.90;;;16.13;;
73015;SDS011;61893;50.074;14.440;2022-08-25T04:08:55;23.95;;;16.80;;
73015;SDS011;61893;50.074;14.440;2022-08-25T04:11:46;27.75;;;20.38;;
73015;SDS011;61893;50.074;14.440;2022-08-25T04:14:16;23.58;;;16.55;;
73015;SDS011;61893;50.074;14.440;2022-08-25T04:17:14;21.88;;;14.18;;
73015;SDS011;61893;50.074;14.440;2022-08-25T04:20:14;19.13;;;13.50;;
73015;SDS011;61893;50.074;14.440;2022-08-25T04:22:48;20.58;;;13.82;;
73015;SDS011;61893;50.074;14.440;2022-08-25T04:28:20;17.00;;;13.05;;
73015;SDS011;61893;50.074;14.440;2022-08-25T04:30:49;20.85;;;13.57;;
73015;SDS011;61893;50.074;14.440;2022-08-25T04:34:25;15.10;;;12.23;;
73015;SDS011;61893;50.074;14.440;2022-08-25T04:37:37;16.38;;;12.48;;
73015;SDS011;61893;50.074;14.440;2022-08-25T04:42:58;16.02;;;12.32;;
73015;SDS011;61893;50.074;14.440;2022-08-25T04:45:35;19.63;;;13.18;;
73015;SDS011;61893;50.074;14.440;2022-08-25T04:49:11;18.52;;;13.50;;
73015;SDS011;61893;50.074;14.440;2022-08-25T04:52:46;18.90;;;13.27;;
73015;SDS011;61893;50.074;14.440;2022-08-25T04:55:17;17.08;;;13.07;;
73015;SDS011;61893;50.074;14.440;2022-08-25T04:57:47;19.15;;;14.63;;
73015;SDS011;61893;50.074;14.440;2022-08-25T05:00:13;20.90;;;13.82;;
73015;SDS011;61893;50.074;14.440;2022-08-25T05:02:43;17.65;;;13.63;;
73015;SDS011;61893;50.074;14.440;2022-08-25T05:05:50;19.85;;;14.65;;
73015;SDS011;61893;50.074;14.440;2022-08-25T05:08:47;23.08;;;14.68;;
73015;SDS011;61893;50.074;14.440;2022-08-25T05:11:14;18.67;;;13.95;;
73015;SDS011;61893;50.074;14.440;2022-08-25T05:14:14;17.50;;;14.07;;
73015;SDS011;61893;50.074;14.440;2022-08-25T05:18:12;19.95;;;13.82;;
73015;SDS011;61893;50.074;14.440;2022-08-25T05:22:05;22.80;;;16.50;;
73015;SDS011;61893;50.074;14.440;2022-08-25T05:26:07;23.25;;;15.23;;
73015;SDS011;61893;50.074;14.440;2022-08-25T05:29:42;20.58;;;15.57;;
73015;SDS011;61893;50.074;14.440;2022-08-25T05:33:30;22.95;;;14.40;;
73015;SDS011;61893;50.074;14.440;2022-08-25T05:37:19;25.67;;;16.15;;
73015;SDS011;61893;50.074;14.440;2022-08-25T05:40:31;21.55;;;14.80;;
73015;SDS011;61893;50.074;14.440;2022-08-25T05:44:29;19.35;;;14.45;;
73015;SDS011;61893;50.074;14.440;2022-08-25T05:47:29;20.42;;;14.77;;
73015;SDS011;61893;50.074;14.440;2022-08-25T05:49:56;20.58;;;15.15;;
73015;SDS011;61893;50.074;14.440;2022-08-25T05:52:22;22.88;;;16.17;;
73015;SDS011;61893;50.074;14.440;2022-08-25T05:54:49;21.90;;;15.55;;
73015;SDS011;61893;50.074;14.440;2022-08-25T05:57:18;20.90;;;15.77;;
73015;SDS011;61893;50.074;14.440;2022-08-25T05:59:58;22.58;;;17.33;;
73015;SDS011;61893;50.074;14.440;2022-08-25T06:02:45;23.48;;;16.70;;
73015;SDS011;61893;50.074;14.440;2022-08-25T06:05:21;24.17;;;16.63;;
73015;SDS011;61893;50.074;14.440;2022-08-25T06:07:49;20.77;;;15.45;;
73015;SDS011;61893;50.074;14.440;2022-08-25T06:10:34;21.48;;;16.30;;
73015;SDS011;61893;50.074;14.440;2022-08-25T06:13:00;22.40;;;15.82;;
73015;SDS011;61893;50.074;14.440;2022-08-25T06:15:25;22.95;;;16.23;;
73015;SDS011;61893;50.074;14.440;2022-08-25T06:17:52;24.52;;;17.25;;
73015;SDS011;61893;50.074;14.440;2022-08-25T06:20:22;25.27;;;16.73;;
73015;SDS011;61893;50.074;14.440;2022-08-25T06:22:49;23.50;;;16.65;;
73015;SDS011;61893;50.074;14.440;2022-08-25T06:25:16;30.27;;;17.17;;
73015;SDS011;61893;50.074;14.440;2022-08-25T06:27:44;23.10;;;17.48;;
73015;SDS011;61893;50.074;14.440;2022-08-25T06:30:11;25.23;;;17.88;;
73015;SDS011;61893;50.074;14.440;2022-08-25T06:32:40;25.23;;;17.90;;
73015;SDS011;61893;50.074;14.440;2022-08-25T06:35:11;27.35;;;18.77;;
73015;SDS011;61893;50.074;14.440;2022-08-25T06:37:40;23.20;;;17.98;;
73015;SDS011;61893;50.074;14.440;2022-08-25T06:40:07;27.40;;;17.73;;
73015;SDS011;61893;50.074;14.440;2022-08-25T06:42:35;26.40;;;18.05;;
73015;SDS011;61893;50.074;14.440;2022-08-25T06:45:01;25.73;;;17.73;;
73015;SDS011;61893;50.074;14.440;2022-08-25T06:47:28;27.63;;;18.67;;
73015;SDS011;61893;50.074;14.440;2022-08-25T06:49:54;29.65;;;18.35;;
73015;SDS011;61893;50.074;14.440;2022-08-25T06:52:25;28.95;;;17.98;;
73015;SDS011;61893;50.074;14.440;2022-08-25T06:54:52;27.63;;;17.60;;
73015;SDS011;61893;50.074;14.440;2022-08-25T06:57:21;28.85;;;18.55;;
73015;SDS011;61893;50.074;14.440;2022-08-25T06:59:47;24.23;;;17.90;;
73015;SDS011;61893;50.074;14.440;2022-08-25T07:02:13;28.05;;;18.13;;
73015;SDS011;61893;50.074;14.440;2022-08-25T07:05:01;27.05;;;17.83;;
73015;SDS011;61893;50.074;14.440;2022-08-25T07:08:06;27.25;;;17.50;;
73015;SDS011;61893;50.074;14.440;2022-08-25T07:10:44;23.73;;;16.42;;
73015;SDS011;61893;50.074;14.440;2022-08-25T07:13:16;21.02;;;15.32;;
73015;SDS011;61893;50.074;14.440;2022-08-25T07:16:17;25.40;;;16.50;;
73015;SDS011;61893;50.074;14.440;2022-08-25T07:19:06;28.45;;;16.10;;
73015;SDS011;61893;50.074;14.440;2022-08-25T07:22:12;27.30;;;16.52;;
73015;SDS011;61893;50.074;14.440;2022-08-25T07:24:40;21.52;;;15.95;;
73015;SDS011;61893;50.074;14.440;2022-08-25T07:27:39;24.05;;;15.95;;
73015;SDS011;61893;50.074;14.440;2022-08-25T07:30:25;24.15;;;16.30;;
73015;SDS011;61893;50.074;14.440;2022-08-25T07:33:00;27.15;;;15.93;;
73015;SDS011;61893;50.074;14.440;2022-08-25T07:36:07;21.02;;;14.70;;
73015;SDS011;61893;50.074;14.440;2022-08-25T07:39:45;20.17;;;13.45;;
73015;SDS011;61893;50.074;14.440;2022-08-25T07:42:17;22.20;;;15.68;;
73015;SDS011;61893;50.074;14.440;2022-08-25T07:45:09;20.13;;;14.68;;
73015;SDS011;61893;50.074;14.440;2022-08-25T07:48:28;28.30;;;15.55;;
73015;SDS011;61893;50.074;14.440;2022-08-25T07:51:33;22.55;;;14.52;;
73015;SDS011;61893;50.074;14.440;2022-08-25T07:54:21;25.65;;;14.15;;
73015;SDS011;61893;50.074;14.440;2022-08-25T07:56:55;21.65;;;14.88;;
73015;SDS011;61893;50.074;14.440;2022-08-25T07:59:29;19.58;;;13.60;;
73015;SDS011;61893;50.074;14.440;2022-08-25T08:02:29;21.15;;;14.68;;
73015;SDS011;61893;50.074;14.440;2022-08-25T08:05:11;21.98;;;13.90;;
73015;SDS011;61893;50.074;14.440;2022-08-25T08:07:54;23.85;;;13.98;;
73015;SDS011;61893;50.074;14.440;2022-08-25T08:11:31;19.23;;;13.13;;
73015;SDS011;61893;50.074;14.440;2022-08-25T08:14:16;19.17;;;12.95;;
73015;SDS011;61893;50.074;14.440;2022-08-25T08:17:30;23.30;;;12.60;;
73015;SDS011;61893;50.074;14.440;2022-08-25T08:20:10;24.67;;;12.30;;
73015;SDS011;61893;50.074;14.440;2022-08-25T08:22:41;20.77;;;11.50;;
73015;SDS011;61893;50.074;14.440;2022-08-25T08:25:08;22.20;;;11.50;;
73015;SDS011;61893;50.074;14.440;2022-08-25T08:27:39;21.52;;;11.55;;
73015;SDS011;61893;50.074;14.440;2022-08-25T08:30:46;20.50;;;10.50;;
73015;SDS011;61893;50.074;14.440;2022-08-25T08:33:26;20.70;;;11.88;;
73015;SDS011;61893;50.074;14.440;2022-08-25T08:36:42;15.85;;;10.77;;
73015;SDS011;61893;50.074;14.440;2022-08-25T08:40:11;22.52;;;11.38;;
73015;SDS011;61893;50.074;14.440;2022-08-25T08:43:09;15.98;;;9.93;;
73015;SDS011;61893;50.074;14.440;2022-08-25T08:46:00;20.92;;;11.35;;
73015;SDS011;61893;50.074;14.440;2022-08-25T08:51:20;15.77;;;11.00;;
73015;SDS011;61893;50.074;14.440;2022-08-25T08:54:28;23.80;;;11.77;;
73015;SDS011;61893;50.074;14.440;2022-08-25T08:58:03;21.00;;;11.18;;
73015;SDS011;61893;50.074;14.440;2022-08-25T09:00:52;21.08;;;11.00;;
73015;SDS011;61893;50.074;14.440;2022-08-25T09:03:39;24.70;;;11.18;;
73015;SDS011;61893;50.074;14.440;2022-08-25T09:06:37;20.55;;;11.23;;
73015;SDS011;61893;50.074;14.440;2022-08-25T09:09:18;17.67;;;11.02;;
73015;SDS011;61893;50.074;14.440;2022-08-25T09:18:50;20.95;;;8.82;;
73015;SDS011;61893;50.074;14.440;2022-08-25T09:25:18;20.25;;;9.05;;
73015;SDS011;61893;50.074;14.440;2022-08-25T09:31:37;26.15;;;9.98;;
73015;SDS011;61893;50.074;14.440;2022-08-25T09:34:19;18.25;;;9.45;;
73015;SDS011;61893;50.074;14.440;2022-08-25T09:38:02;34.15;;;8.80;;
73015;SDS011;61893;50.074;14.440;2022-08-25T09:40:32;26.40;;;8.43;;
73015;SDS011;61893;50.074;14.440;2022-08-25T09:43:17;20.77;;;8.68;;
73015;SDS011;61893;50.074;14.440;2022-08-25T09:48:48;17.92;;;8.57;;
73015;SDS011;61893;50.074;14.440;2022-08-25T09:51:35;19.73;;;8.13;;
73015;SDS011;61893;50.074;14.440;2022-08-25T09:54:23;29.98;;;9.35;;
73015;SDS011;61893;50.074;14.440;2022-08-25T09:57:06;23.83;;;8.85;;
73015;SDS011;61893;50.074;14.440;2022-08-25T10:00:12;28.75;;;8.73;;
73015;SDS011;61893;50.074;14.440;2022-08-25T10:05:58;31.60;;;8.63;;
73015;SDS011;61893;50.074;14.440;2022-08-25T10:11:46;24.85;;;8.35;;
73015;SDS011;61893;50.074;14.440;2022-08-25T10:14:40;29.90;;;8.68;;
73015;SDS011;61893;50.074;14.440;2022-08-25T10:22:40;20.70;;;7.80;;
73015;SDS011;61893;50.074;14.440;2022-08-25T10:25:40;24.88;;;7.70;;
73015;SDS011;61893;50.074;14.440;2022-08-25T10:30:58;27.33;;;8.20;;
73015;SDS011;61893;50.074;14.440;2022-08-25T10:37:11;27.67;;;7.88;;
73015;SDS011;61893;50.074;14.440;2022-08-25T10:40:03;20.80;;;7.43;;
73015;SDS011;61893;50.074;14.440;2022-08-25T10:45:52;33.70;;;8.43;;
73015;SDS011;61893;50.074;14.440;2022-08-25T10:54:57;29.47;;;8.93;;
73015;SDS011;61893;50.074;14.440;2022-08-25T10:57:35;27.83;;;7.60;;
73015;SDS011;61893;50.074;14.440;2022-08-25T11:00:13;22.20;;;8.32;;
73015;SDS011;61893;50.074;14.440;2022-08-25T11:05:54;25.15;;;8.15;;
73015;SDS011;61893;50.074;14.440;2022-08-25T11:08:50;29.80;;;8.65;;
73015;SDS011;61893;50.074;14.440;2022-08-25T11:14:21;26.30;;;8.20;;
73015;SDS011;61893;50.074;14.440;2022-08-25T11:20:26;26.15;;;7.70;;
73015;SDS011;61893;50.074;14.440;2022-08-25T11:25:50;21.38;;;8.30;;
73015;SDS011;61893;50.074;14.440;2022-08-25T11:31:27;24.23;;;9.02;;
73015;SDS011;61893;50.074;14.440;2022-08-25T11:33:58;26.83;;;8.38;;
73015;SDS011;61893;50.074;14.440;2022-08-25T11:36:35;23.70;;;7.93;;
73015;SDS011;61893;50.074;14.440;2022-08-25T11:39:44;27.10;;;8.13;;
73015;SDS011;61893;50.074;14.440;2022-08-25T11:48:17;27.40;;;7.68;;
73015;SDS011;61893;50.074;14.440;2022-08-25T11:51:25;23.88;;;7.30;;
73015;SDS011;61893;50.074;14.440;2022-08-25T12:08:46;24.30;;;6.88;;
73015;SDS011;61893;50.074;14.440;2022-08-25T12:17:05;19.08;;;6.50;;
73015;SDS011;61893;50.074;14.440;2022-08-25T12:25:18;20.73;;;6.85;;
73015;SDS011;61893;50.074;14.440;2022-08-25T12:37:58;29.25;;;7.53;;
73015;SDS011;61893;50.074;14.440;2022-08-25T12:46:33;21.55;;;6.68;;
73015;SDS011;61893;50.074;14.440;2022-08-25T12:49:30;26.58;;;6.47;;
73015;SDS011;61893;50.074;14.440;2022-08-25T12:55:32;24.35;;;6.72;;
73015;SDS011;61893;50.074;14.440;2022-08-25T12:58:13;27.52;;;6.82;;
73015;SDS011;61893;50.074;14.440;2022-08-25T13:01:09;25.13;;;6.43;;
73015;SDS011;61893;50.074;14.440;2022-08-25T13:04:29;28.90;;;7.00;;
73015;SDS011;61893;50.074;14.440;2022-08-25T13:07:55;19.30;;;6.32;;
73015;SDS011;61893;50.074;14.440;2022-08-25T13:10:54;28.25;;;6.35;;
73015;SDS011;61893;50.074;14.440;2022-08-25T13:16:56;20.17;;;6.25;;
73015;SDS011;61893;50.074;14.440;2022-08-25T13:19:46;22.15;;;6.47;;
73015;SDS011;61893;50.074;14.440;2022-08-25T13:22:14;18.08;;;6.22;;
73015;SDS011;61893;50.074;14.440;2022-08-25T13:24:46;23.50;;;6.50;;
73015;SDS011;61893;50.074;14.440;2022-08-25T13:28:06;16.88;;;6.40;;
73015;SDS011;61893;50.074;14.440;2022-08-25T13:31:15;22.83;;;6.53;;
73015;SDS011;61893;50.074;14.440;2022-08-25T13:34:24;28.13;;;6.88;;
73015;SDS011;61893;50.074;14.440;2022-08-25T13:37:10;27.63;;;7.30;;
73015;SDS011;61893;50.074;14.440;2022-08-25T13:42:54;26.80;;;7.68;;
73015;SDS011;61893;50.074;14.440;2022-08-25T13:46:22;23.30;;;7.78;;
73015;SDS011;61893;50.074;14.440;2022-08-25T13:49:12;26.00;;;7.93;;
73015;SDS011;61893;50.074;14.440;2022-08-25T13:51:58;20.98;;;6.60;;
73015;SDS011;61893;50.074;14.440;2022-08-25T13:54:44;30.60;;;8.25;;
73015;SDS011;61893;50.074;14.440;2022-08-25T13:57:32;23.10;;;6.72;;
73015;SDS011;61893;50.074;14.440;2022-08-25T14:00:25;24.95;;;7.63;;
73015;SDS011;61893;50.074;14.440;2022-08-25T14:03:36;23.60;;;7.50;;
73015;SDS011;61893;50.074;14.440;2022-08-25T14:06:28;25.15;;;7.15;;
73015;SDS011;61893;50.074;14.440;2022-08-25T14:09:16;21.35;;;6.63;;
73015;SDS011;61893;50.074;14.440;2022-08-25T14:12:02;24.98;;;6.20;;
73015;SDS011;61893;50.074;14.440;2022-08-25T14:14:29;18.45;;;6.63;;
73015;SDS011;61893;50.074;14.440;2022-08-25T14:17:01;20.67;;;6.45;;
73015;SDS011;61893;50.074;14.440;2022-08-25T14:20:32;17.15;;;5.70;;
73015;SDS011;61893;50.074;14.440;2022-08-25T14:23:18;31.42;;;6.53;;
73015;SDS011;61893;50.074;14.440;2022-08-25T14:26:00;22.55;;;6.22;;
73015;SDS011;61893;50.074;14.440;2022-08-25T14:28:39;18.60;;;5.13;;
73015;SDS011;61893;50.074;14.440;2022-08-25T14:31:08;18.55;;;5.57;;
73015;SDS011;61893;50.074;14.440;2022-08-25T14:34:07;19.02;;;5.40;;
73015;SDS011;61893;50.074;14.440;2022-08-25T14:36:50;20.35;;;5.53;;
73015;SDS011;61893;50.074;14.440;2022-08-25T14:39:17;17.48;;;5.32;;
73015;SDS011;61893;50.074;14.440;2022-08-25T14:42:10;19.92;;;5.45;;
73015;SDS011;61893;50.074;14.440;2022-08-25T14:45:02;18.20;;;5.20;;
73015;SDS011;61893;50.074;14.440;2022-08-25T14:47:28;26.20;;;5.80;;
73015;SDS011;61893;50.074;14.440;2022-08-25T14:49:56;21.85;;;5.97;;
73015;SDS011;61893;50.074;14.440;2022-08-25T14:52:25;25.25;;;5.68;;
73015;SDS011;61893;50.074;14.440;2022-08-25T14:54:54;18.20;;;5.75;;
73015;SDS011;61893;50.074;14.440;2022-08-25T14:57:33;23.13;;;5.72;;
73015;SDS011;61893;50.074;14.440;2022-08-25T15:00:09;26.73;;;5.68;;
73015;SDS011;61893;50.074;14.440;2022-08-25T15:02:37;20.25;;;5.75;;
73015;SDS011;61893;50.074;14.440;2022-08-25T15:05:14;27.05;;;5.57;;
73015;SDS011;61893;50.074;14.440;2022-08-25T15:13:46;17.58;;;4.60;;
73015;SDS011;61893;50.074;14.440;2022-08-25T15:16:14;20.60;;;5.32;;
73015;SDS011;61893;50.074;14.440;2022-08-25T15:18:52;19.73;;;5.78;;
73015;SDS011;61893;50.074;14.440;2022-08-25T15:21:19;13.60;;;4.32;;
73015;SDS011;61893;50.074;14.440;2022-08-25T15:23:56;17.90;;;5.32;;
73015;SDS011;61893;50.074;14.440;2022-08-25T15:26:24;19.65;;;5.13;;
73015;SDS011;61893;50.074;14.440;2022-08-25T15:28:50;24.00;;;5.20;;
73015;SDS011;61893;50.074;14.440;2022-08-25T15:31:17;21.00;;;5.43;;
73015;SDS011;61893;50.074;14.440;2022-08-25T15:34:01;23.95;;;4.85;;
73015;SDS011;61893;50.074;14.440;2022-08-25T15:36:27;22.08;;;5.50;;
73015;SDS011;61893;50.074;14.440;2022-08-25T15:38:53;21.15;;;5.18;;
73015;SDS011;61893;50.074;14.440;2022-08-25T15:41:22;17.63;;;5.20;;
73015;SDS011;61893;50.074;14.440;2022-08-25T15:44:05;17.02;;;5.32;;
73015;SDS011;61893;50.074;14.440;2022-08-25T15:46:58;15.50;;;4.88;;
73015;SDS011;61893;50.074;14.440;2022-08-25T15:49:47;20.48;;;4.97;;
73015;SDS011;61893;50.074;14.440;2022-08-25T15:52:42;15.65;;;4.97;;
73015;SDS011;61893;50.074;14.440;2022-08-25T15:55:25;17.75;;;5.00;;
73015;SDS011;61893;50.074;14.440;2022-08-25T15:58:08;17.38;;;5.70;;
73015;SDS011;61893;50.074;14.440;2022-08-25T16:00:36;25.77;;;5.10;;
73015;SDS011;61893;50.074;14.440;2022-08-25T16:03:02;13.50;;;5.10;;
73015;SDS011;61893;50.074;14.440;2022-08-25T16:05:51;22.30;;;5.35;;
73015;SDS011;61893;50.074;14.440;2022-08-25T16:08:17;14.70;;;5.20;;
73015;SDS011;61893;50.074;14.440;2022-08-25T16:10:55;20.58;;;4.88;;
73015;SDS011;61893;50.074;14.440;2022-08-25T16:13:36;16.20;;;5.20;;
73015;SDS011;61893;50.074;14.440;2022-08-25T16:16:03;22.73;;;5.80;;
73015;SDS011;61893;50.074;14.440;2022-08-25T16:18:43;15.70;;;5.72;;
73015;SDS011;61893;50.074;14.440;2022-08-25T16:21:29;17.48;;;5.70;;
73015;SDS011;61893;50.074;14.440;2022-08-25T16:24:10;15.55;;;5.28;;
73015;SDS011;61893;50.074;14.440;2022-08-25T16:26:39;17.33;;;6.10;;
73015;SDS011;61893;50.074;14.440;2022-08-25T16:29:19;17.52;;;5.82;;
73015;SDS011;61893;50.074;14.440;2022-08-25T16:32:06;19.67;;;5.53;;
73015;SDS011;61893;50.074;14.440;2022-08-25T16:34:56;16.00;;;5.32;;
73015;SDS011;61893;50.074;14.440;2022-08-25T16:38:02;18.05;;;5.75;;
73015;SDS011;61893;50.074;14.440;2022-08-25T16:40:48;18.20;;;5.43;;
73015;SDS011;61893;50.074;14.440;2022-08-25T16:43:29;14.90;;;5.03;;
73015;SDS011;61893;50.074;14.440;2022-08-25T16:46:02;14.90;;;4.75;;
73015;SDS011;61893;50.074;14.440;2022-08-25T16:48:48;10.40;;;4.70;;
73015;SDS011;61893;50.074;14.440;2022-08-25T16:51:31;15.85;;;4.90;;
73015;SDS011;61893;50.074;14.440;2022-08-25T16:57:41;13.95;;;5.03;;
73015;SDS011;61893;50.074;14.440;2022-08-25T17:01:14;18.95;;;5.78;;
73015;SDS011;61893;50.074;14.440;2022-08-25T17:04:10;11.73;;;5.80;;
73015;SDS011;61893;50.074;14.440;2022-08-25T17:06:45;17.38;;;6.10;;
73015;SDS011;61893;50.074;14.440;2022-08-25T17:09:17;17.85;;;7.15;;
73015;SDS011;61893;50.074;14.440;2022-08-25T17:12:09;15.65;;;5.68;;
73015;SDS011;61893;50.074;14.440;2022-08-25T17:15:12;15.77;;;6.97;;
73015;SDS011;61893;50.074;14.440;2022-08-25T17:18:01;18.00;;;6.97;;
73015;SDS011;61893;50.074;14.440;2022-08-25T17:21:04;13.73;;;5.97;;
73015;SDS011;61893;50.074;14.440;2022-08-25T17:24:34;13.02;;;5.78;;
73015;SDS011;61893;50.074;14.440;2022-08-25T17:27:06;12.57;;;6.72;;
73015;SDS011;61893;50.074;14.440;2022-08-25T17:29:37;16.17;;;6.18;;
73015;SDS011;61893;50.074;14.440;2022-08-25T17:32:27;12.63;;;5.47;;
73015;SDS011;61893;50.074;14.440;2022-08-25T17:34:54;13.52;;;6.78;;
73015;SDS011;61893;50.074;14.440;2022-08-25T17:37:23;17.15;;;8.38;;
73015;SDS011;61893;50.074;14.440;2022-08-25T17:40:06;19.48;;;7.68;;
73015;SDS011;61893;50.074;14.440;2022-08-25T17:42:35;18.95;;;8.10;;
73015;SDS011;61893;50.074;14.440;2022-08-25T17:45:10;19.35;;;7.80;;
73015;SDS011;61893;50.074;14.440;2022-08-25T17:47:36;22.60;;;8.55;;
73015;SDS011;61893;50.074;14.440;2022-08-25T17:50:07;19.88;;;7.75;;
73015;SDS011;61893;50.074;14.440;2022-08-25T17:52:39;18.35;;;7.20;;
73015;SDS011;61893;50.074;14.440;2022-08-25T17:55:05;23.30;;;7.82;;
73015;SDS011;61893;50.074;14.440;2022-08-25T17:57:31;20.98;;;7.38;;
73015;SDS011;61893;50.074;14.440;2022-08-25T18:00:17;20.80;;;7.72;;
73015;SDS011;61893;50.074;14.440;2022-08-25T18:02:58;16.65;;;7.47;;
73015;SDS011;61893;50.074;14.440;2022-08-25T18:05:32;17.00;;;7.50;;
73015;SDS011;61893;50.074;14.440;2022-08-25T18:08:09;17.30;;;7.38;;
73015;SDS011;61893;50.074;14.440;2022-08-25T18:10:42;27.60;;;8.60;;
73015;SDS011;61893;50.074;14.440;2022-08-25T18:13:19;21.88;;;8.73;;
73015;SDS011;61893;50.074;14.440;2022-08-25T18:15:55;17.48;;;7.07;;
73015;SDS011;61893;50.074;14.440;2022-08-25T18:18:32;17.48;;;7.22;;
73015;SDS011;61893;50.074;14.440;2022-08-25T18:21:11;16.65;;;7.78;;
73015;SDS011;61893;50.074;14.440;2022-08-25T18:23:41;14.00;;;7.28;;
73015;SDS011;61893;50.074;14.440;2022-08-25T18:26:22;15.52;;;7.68;;
73015;SDS011;61893;50.074;14.440;2022-08-25T18:28:53;20.35;;;7.88;;